createdAt,value
2018-11-06T00:01:05.196Z,1.53
2018-11-06T00:03:34.561Z,2.10
2018-11-06T00:06:02.908Z,1.90
2018-11-06T00:08:31.663Z,1.93
2018-11-06T00:10:59.948Z,1.73
2018-11-06T00:13:28.561Z,1.70
2018-11-06T00:15:56.098Z,1.60
2018-11-06T00:18:25.015Z,1.63
2018-11-06T00:20:53.453Z,1.80
2018-11-06T00:23:21.738Z,1.70
2018-11-06T00:25:49.162Z,1.60
2018-11-06T00:28:18.478Z,1.90
2018-11-06T00:30:45.665Z,1.70
2018-11-06T00:33:13.426Z,1.83
2018-11-06T00:35:41.884Z,1.90
2018-11-06T00:38:10.688Z,1.53
2018-11-06T00:40:38.849Z,1.70
2018-11-06T00:43:06.097Z,1.57
2018-11-06T00:45:34.071Z,1.63
2018-11-06T00:48:02.040Z,1.80
2018-11-06T00:50:31.542Z,1.53
2018-11-06T00:53:00.534Z,1.87
2018-11-06T00:55:29.115Z,1.60
2018-11-06T00:57:57.767Z,1.50
2018-11-06T01:00:26.004Z,1.77
2018-11-06T01:02:53.997Z,1.37
2018-11-06T01:05:22.669Z,1.50
2018-11-06T01:07:50.663Z,1.90
2018-11-06T01:10:19.337Z,1.67
2018-11-06T01:12:47.595Z,1.77
2018-11-06T01:15:15.607Z,1.60
2018-11-06T01:17:43.911Z,1.60
2018-11-06T01:20:14.781Z,1.53
2018-11-06T01:22:42.946Z,1.80
2018-11-06T01:25:12.314Z,1.60
2018-11-06T01:27:39.723Z,1.40
2018-11-06T01:30:08.877Z,1.87
2018-11-06T01:32:38.363Z,1.50
2018-11-06T01:35:06.719Z,1.70
2018-11-06T01:37:35.347Z,1.50
2018-11-06T01:40:05.501Z,1.40
2018-11-06T01:42:33.028Z,1.50
2018-11-06T01:45:02.444Z,1.60
2018-11-06T01:47:31.128Z,1.67
2018-11-06T01:50:00.313Z,1.50
2018-11-06T01:52:28.488Z,1.20
2018-11-06T01:54:57.173Z,1.30
2018-11-06T01:57:25.860Z,1.23
2018-11-06T01:59:54.144Z,1.20
2018-11-06T02:02:23.217Z,1.17
2018-11-06T02:04:52.736Z,1.20
2018-11-06T02:07:21.214Z,1.37
2018-11-06T02:09:50.209Z,1.30
2018-11-06T02:12:18.551Z,1.40
2018-11-06T02:14:45.642Z,1.30
2018-11-06T02:17:14.957Z,1.47
2018-11-06T02:19:43.584Z,1.40
2018-11-06T02:22:12.899Z,1.60
2018-11-06T02:24:41.671Z,1.37
2018-11-06T02:27:11.507Z,1.37
2018-11-06T02:29:39.808Z,1.30
2018-11-06T02:32:07.387Z,1.30
2018-11-06T02:34:35.920Z,1.60
2018-11-06T02:37:03.175Z,1.40
2018-11-06T02:39:30.358Z,1.33
2018-11-06T02:41:58.896Z,1.23
2018-11-06T02:44:26.794Z,1.30
2018-11-06T02:46:55.483Z,1.27
2018-11-06T02:49:24.997Z,1.07
2018-11-06T02:51:52.988Z,1.33
2018-11-06T02:54:22.278Z,1.03
2018-11-06T02:56:50.371Z,1.40
2018-11-06T02:59:18.562Z,1.20
2018-11-06T03:01:46.770Z,1.40
2018-11-06T03:04:14.449Z,1.60
2018-11-06T03:06:42.600Z,1.43
2018-11-06T03:09:10.688Z,1.50
2018-11-06T03:11:38.860Z,1.33
2018-11-06T03:14:06.834Z,1.50
2018-11-06T03:16:36.727Z,1.37
2018-11-06T03:19:05.160Z,1.00
2018-11-06T03:21:34.507Z,1.80
2018-11-06T03:24:03.628Z,1.47
2018-11-06T03:26:33.090Z,1.30
2018-11-06T03:29:01.265Z,1.40
2018-11-06T03:31:29.467Z,1.50
2018-11-06T03:33:56.987Z,1.30
2018-11-06T03:36:25.826Z,1.50
2018-11-06T03:38:54.513Z,1.60
2018-11-06T03:41:23.837Z,1.30
2018-11-06T03:43:52.160Z,1.20
2018-11-06T03:46:20.188Z,1.60
2018-11-06T03:48:48.041Z,1.27
2018-11-06T03:51:16.525Z,1.53
2018-11-06T03:53:44.391Z,1.80
2018-11-06T03:56:12.249Z,1.50
2018-11-06T03:58:40.141Z,1.50
2018-11-06T04:01:07.972Z,1.73
2018-11-06T04:03:36.048Z,1.60
2018-11-06T04:06:04.985Z,1.60
2018-11-06T04:08:32.669Z,1.60
2018-11-06T04:11:01.696Z,1.60
2018-11-06T04:13:32.187Z,1.73
2018-11-06T04:16:02.970Z,1.60
2018-11-06T04:18:32.456Z,1.63
2018-11-06T04:21:01.500Z,1.80
2018-11-06T04:23:30.331Z,1.77
2018-11-06T04:25:59.328Z,1.90
2018-11-06T04:28:27.830Z,2.10
2018-11-06T04:30:56.228Z,2.10
2018-11-06T04:33:25.297Z,2.20
2018-11-06T04:35:54.697Z,2.10
2018-11-06T04:38:23.179Z,2.00
2018-11-06T04:40:50.942Z,1.90
2018-11-06T04:43:18.821Z,1.87
2018-11-06T04:45:46.553Z,2.20
2018-11-06T04:48:13.648Z,2.10
2018-11-06T04:50:40.360Z,2.40
2018-11-06T04:53:07.048Z,2.10
2018-11-06T04:55:41.078Z,2.10
2018-11-06T04:58:08.028Z,2.30
2018-11-06T05:00:35.823Z,2.00
2018-11-06T05:03:02.537Z,2.20
2018-11-06T05:05:29.360Z,1.97
2018-11-06T05:07:56.291Z,1.83
2018-11-06T05:10:23.759Z,2.07
2018-11-06T05:12:50.546Z,1.90
2018-11-06T05:15:17.599Z,2.00
2018-11-06T05:17:44.332Z,2.03
2018-11-06T05:20:11.475Z,2.20
2018-11-06T05:22:40.323Z,2.27
2018-11-06T05:25:08.268Z,2.33
2018-11-06T05:27:35.315Z,2.07
2018-11-06T05:30:02.387Z,2.10
2018-11-06T05:32:29.564Z,2.50
2018-11-06T05:34:56.521Z,2.33
2018-11-06T05:37:23.446Z,2.30
2018-11-06T05:39:50.971Z,2.13
2018-11-06T05:42:17.769Z,2.20
2018-11-06T05:44:44.571Z,1.73
2018-11-06T05:47:11.413Z,2.30
2018-11-06T05:49:39.035Z,1.90
2018-11-06T05:52:06.172Z,1.67
2018-11-06T05:54:33.355Z,2.10
2018-11-06T05:57:00.184Z,1.97
2018-11-06T05:59:28.035Z,1.90
2018-11-06T06:01:55.386Z,2.30
2018-11-06T06:04:22.080Z,2.27
2018-11-06T06:06:49.156Z,2.20
2018-11-06T06:09:16.032Z,2.13
2018-11-06T06:11:42.962Z,1.93
2018-11-06T06:14:09.866Z,1.87
2018-11-06T06:16:37.418Z,1.90
2018-11-06T06:19:10.088Z,2.10
2018-11-06T06:21:53.298Z,1.90
2018-11-06T06:24:20.428Z,1.80
2018-11-06T06:26:47.325Z,1.90
2018-11-06T06:29:14.203Z,2.00
2018-11-06T06:31:41.975Z,1.40
2018-11-06T06:34:09.007Z,1.40
2018-11-06T06:36:36.414Z,1.90
2018-11-06T06:39:03.605Z,1.70
2018-11-06T06:41:30.557Z,1.90
2018-11-06T06:43:57.987Z,1.70
2018-11-06T06:46:25.554Z,1.60
2018-11-06T06:48:52.229Z,1.63
2018-11-06T06:51:19.324Z,1.63
2018-11-06T06:53:46.185Z,1.47
2018-11-06T06:56:13.593Z,1.40
2018-11-06T06:58:41.272Z,5.67
2018-11-06T07:01:08.929Z,3.43
2018-11-06T07:03:35.775Z,3.43
2018-11-06T07:06:03.613Z,4.17
2018-11-06T07:08:30.538Z,2.87
2018-11-06T07:10:58.116Z,3.00
2018-11-06T07:13:24.964Z,16.17
2018-11-06T07:15:51.691Z,9.80
2018-11-06T07:18:18.999Z,4.13
2018-11-06T07:20:45.841Z,3.80
2018-11-06T07:23:13.350Z,2.53
2018-11-06T07:25:40.404Z,2.10
2018-11-06T07:28:07.135Z,2.13
2018-11-06T07:30:33.907Z,2.20
2018-11-06T07:33:01.031Z,2.10
2018-11-06T07:35:28.079Z,1.90
2018-11-06T07:37:54.777Z,1.90
2018-11-06T07:40:21.828Z,2.10
2018-11-06T07:42:49.430Z,2.03
2018-11-06T07:45:16.225Z,2.13
2018-11-06T07:47:43.324Z,1.70
2018-11-06T07:50:10.129Z,2.10
2018-11-06T07:52:37.710Z,2.07
2018-11-06T07:55:04.643Z,2.07
2018-11-06T07:57:31.391Z,2.20
2018-11-06T07:59:58.221Z,2.20
2018-11-06T08:02:24.923Z,2.10
2018-11-06T08:04:52.489Z,2.30
2018-11-06T08:07:19.302Z,1.87
2018-11-06T08:09:46.074Z,1.70
2018-11-06T08:12:13.095Z,1.90
2018-11-06T08:14:40.766Z,1.87
2018-11-06T08:17:07.783Z,2.33
2018-11-06T08:19:35.250Z,2.23
2018-11-06T08:22:02.197Z,2.60
2018-11-06T08:24:30.863Z,2.77
2018-11-06T08:26:57.616Z,2.37
2018-11-06T08:29:24.309Z,3.30
2018-11-06T08:31:51.281Z,3.10
2018-11-06T08:34:18.262Z,4.80
2018-11-06T08:36:45.302Z,4.87
2018-11-06T08:39:12.423Z,4.00
2018-11-06T08:41:40.205Z,4.50
2018-11-06T08:44:07.464Z,7.00
2018-11-06T08:46:34.312Z,8.10
2018-11-06T08:49:01.098Z,8.57
2018-11-06T08:51:28.020Z,9.20
2018-11-06T08:53:54.729Z,10.60
2018-11-06T08:56:22.449Z,11.77
2018-11-06T08:58:49.311Z,13.47
2018-11-06T09:01:16.882Z,16.53
2018-11-06T09:03:44.497Z,15.40
2018-11-06T09:06:11.291Z,16.03
2018-11-06T09:08:38.242Z,14.47
2018-11-06T09:11:05.013Z,15.47
2018-11-06T09:13:31.842Z,16.03
2018-11-06T09:15:58.611Z,17.33
2018-11-06T09:18:25.555Z,17.23
2018-11-06T09:20:52.462Z,17.90
2018-11-06T09:23:19.305Z,18.80
2018-11-06T09:25:46.311Z,19.40
2018-11-06T09:28:13.112Z,21.20
2018-11-06T09:30:39.817Z,19.57
2018-11-06T09:33:07.458Z,21.33
2018-11-06T09:35:35.287Z,21.23
2018-11-06T09:38:02.151Z,20.20
2018-11-06T09:42:56.238Z,21.53
2018-11-06T09:45:22.934Z,20.73
2018-11-06T09:47:49.786Z,22.03
2018-11-06T09:50:16.638Z,22.17
2018-11-06T09:52:43.535Z,22.57
2018-11-06T09:55:10.484Z,21.73
2018-11-06T09:57:37.996Z,23.23
2018-11-06T10:00:04.797Z,23.83
2018-11-06T10:02:31.609Z,22.60
2018-11-06T10:04:58.546Z,24.70
2018-11-06T10:07:25.603Z,23.63
2018-11-06T10:09:52.396Z,25.00
2018-11-06T10:12:19.222Z,24.10
2018-11-06T10:14:46.054Z,24.63
2018-11-06T10:17:12.903Z,24.47
2018-11-06T10:19:39.653Z,24.43
2018-11-06T10:22:06.504Z,25.07
2018-11-06T10:24:33.310Z,24.20
2018-11-06T10:27:00.112Z,24.83
2018-11-06T10:29:26.945Z,25.57
2018-11-06T10:31:53.727Z,26.40
2018-11-06T10:34:20.472Z,25.13
2018-11-06T10:36:47.278Z,26.57
2018-11-06T10:39:14.970Z,24.97
2018-11-06T10:41:42.835Z,26.73
2018-11-06T10:44:09.690Z,26.23
2018-11-06T10:46:36.601Z,26.30
2018-11-06T10:49:03.367Z,28.50
2018-11-06T10:51:30.161Z,28.70
2018-11-06T10:53:57.006Z,29.47
2018-11-06T10:56:24.214Z,25.00
2018-11-06T10:58:51.692Z,25.20
2018-11-06T11:01:35.439Z,24.53
2018-11-06T11:04:03.225Z,24.23
2018-11-06T11:06:30.868Z,24.70
2018-11-06T11:08:57.908Z,23.80
2018-11-06T11:11:24.793Z,22.77
2018-11-06T11:13:52.456Z,24.33
2018-11-06T11:16:20.051Z,24.63
2018-11-06T11:18:46.917Z,25.73
2018-11-06T11:21:14.461Z,25.13
2018-11-06T11:23:42.041Z,25.13
2018-11-06T11:26:08.809Z,24.87
2018-11-06T11:28:35.549Z,25.53
2018-11-06T11:31:02.436Z,26.10
2018-11-06T11:33:29.940Z,24.93
2018-11-06T11:35:56.827Z,27.10
2018-11-06T11:38:23.667Z,26.47
2018-11-06T11:40:50.385Z,27.27
2018-11-06T11:43:17.218Z,26.53
2018-11-06T11:45:44.763Z,25.90
2018-11-06T11:48:11.526Z,26.03
2018-11-06T11:50:38.703Z,28.40
2018-11-06T11:53:05.503Z,28.40
2018-11-06T11:55:33.188Z,27.93
2018-11-06T11:58:00.088Z,29.63
2018-11-06T12:00:26.801Z,29.20
2018-11-06T12:02:54.329Z,29.57
2018-11-06T12:05:21.409Z,30.03
2018-11-06T12:07:48.438Z,29.63
2018-11-06T12:10:15.322Z,30.40
2018-11-06T12:12:42.244Z,30.10
2018-11-06T12:15:09.132Z,28.13
2018-11-06T12:17:35.974Z,28.73
2018-11-06T12:20:03.086Z,26.77
2018-11-06T12:22:29.897Z,27.30
2018-11-06T12:24:56.901Z,28.07
2018-11-06T12:27:24.673Z,27.00
2018-11-06T12:30:07.147Z,27.40
2018-11-06T12:32:34.714Z,27.20
2018-11-06T12:35:02.511Z,27.30
2018-11-06T12:37:29.261Z,26.73
2018-11-06T12:39:56.202Z,27.43
2018-11-06T12:42:23.093Z,27.47
2018-11-06T12:44:50.554Z,29.40
2018-11-06T12:47:17.394Z,27.77
2018-11-06T12:49:44.065Z,26.60
2018-11-06T12:52:10.898Z,25.83
2018-11-06T12:54:37.828Z,26.03
2018-11-06T12:57:04.658Z,25.47
2018-11-06T12:59:31.704Z,26.53
2018-11-06T13:01:59.347Z,24.00
2018-11-06T13:04:27.517Z,23.37
2018-11-06T13:06:55.755Z,23.97
2018-11-06T13:09:24.044Z,23.97
2018-11-06T13:11:53.450Z,23.87
2018-11-06T13:14:21.712Z,22.90
2018-11-06T13:16:49.803Z,23.57
2018-11-06T13:19:17.905Z,23.60
2018-11-06T13:21:46.743Z,22.50
2018-11-06T13:24:14.922Z,24.17
2018-11-06T13:26:43.242Z,23.90
2018-11-06T13:29:10.755Z,23.40
2018-11-06T13:31:37.783Z,23.43
2018-11-06T13:34:05.975Z,22.73
2018-11-06T13:36:34.978Z,21.90
2018-11-06T13:39:03.145Z,23.33
2018-11-06T13:41:31.325Z,23.57
2018-11-06T13:43:59.519Z,23.63
2018-11-06T13:46:27.454Z,22.93
2018-11-06T13:48:55.633Z,23.50
2018-11-06T13:51:25.044Z,22.90
2018-11-06T13:53:52.735Z,23.37
2018-11-06T13:56:20.578Z,24.27
2018-11-06T13:58:48.497Z,23.77
2018-11-06T14:01:17.288Z,22.60
2018-11-06T14:03:44.454Z,22.93
2018-11-06T14:06:12.645Z,22.83
2018-11-06T14:08:56.284Z,24.07
2018-11-06T14:11:25.652Z,24.03
2018-11-06T14:13:54.677Z,23.20
2018-11-06T14:16:23.661Z,22.30
2018-11-06T14:18:52.473Z,24.10
2018-11-06T14:21:21.712Z,23.90
2018-11-06T14:23:49.422Z,23.50
2018-11-06T14:26:17.774Z,22.77
2018-11-06T14:28:44.713Z,23.63
2018-11-06T14:31:11.377Z,23.33
2018-11-06T14:33:38.065Z,21.90
2018-11-06T14:36:04.740Z,22.47
2018-11-06T14:38:32.128Z,23.27
2018-11-06T14:40:58.963Z,21.77
2018-11-06T14:43:25.671Z,22.67
2018-11-06T14:45:53.067Z,20.97
2018-11-06T14:48:20.032Z,22.07
2018-11-06T14:50:47.356Z,21.57
2018-11-06T14:53:14.009Z,21.53
2018-11-06T14:55:41.041Z,21.73
2018-11-06T14:58:07.722Z,21.83
2018-11-06T15:00:34.383Z,23.13
2018-11-06T15:03:01.822Z,21.63
2018-11-06T15:05:28.480Z,22.60
2018-11-06T15:07:55.175Z,22.20
2018-11-06T15:10:21.828Z,22.67
2018-11-06T15:12:48.704Z,21.97
2018-11-06T15:15:16.161Z,21.90
2018-11-06T15:17:43.650Z,22.73
2018-11-06T15:20:10.335Z,23.63
2018-11-06T15:22:37.045Z,23.83
2018-11-06T15:25:03.951Z,22.53
2018-11-06T15:27:30.625Z,22.13
2018-11-06T15:29:57.328Z,24.27
2018-11-06T15:32:38.876Z,23.97
2018-11-06T15:35:05.619Z,22.50
2018-11-06T15:37:33.102Z,24.10
2018-11-06T15:39:59.771Z,23.33
2018-11-06T15:42:26.590Z,22.10
2018-11-06T15:44:53.261Z,22.73
2018-11-06T15:47:20.665Z,22.57
2018-11-06T15:49:47.453Z,23.53
2018-11-06T15:52:29.147Z,22.97
2018-11-06T15:54:55.986Z,19.53
2018-11-06T15:57:22.638Z,21.33
2018-11-06T15:59:49.372Z,20.27
2018-11-06T16:02:16.181Z,20.80
2018-11-06T16:04:42.890Z,19.33
2018-11-06T16:07:09.592Z,20.20
2018-11-06T16:09:36.346Z,20.13
2018-11-06T16:12:03.107Z,20.50
2018-11-06T16:14:29.817Z,19.40
2018-11-06T16:16:56.602Z,19.20
2018-11-06T16:19:25.114Z,19.07
2018-11-06T16:21:52.213Z,19.77
2018-11-06T16:24:19.030Z,18.60
2018-11-06T16:26:45.695Z,18.27
2018-11-06T16:29:12.347Z,19.30
2018-11-06T16:31:39.095Z,17.90
2018-11-06T16:34:05.809Z,18.07
2018-11-06T16:36:32.483Z,18.47
2018-11-06T16:38:59.905Z,18.83
2018-11-06T16:41:26.645Z,16.50
2018-11-06T16:43:53.268Z,17.03
2018-11-06T16:46:20.034Z,17.27
2018-11-06T16:48:46.740Z,18.70
2018-11-06T16:51:13.459Z,17.83
2018-11-06T16:53:40.238Z,17.57
2018-11-06T16:56:06.863Z,18.73
2018-11-06T16:58:33.510Z,17.90
2018-11-06T17:01:00.294Z,17.33
2018-11-06T17:03:27.633Z,17.20
2018-11-06T17:05:54.302Z,17.67
2018-11-06T17:08:21.860Z,18.13
2018-11-06T17:10:49.333Z,18.20
2018-11-06T17:13:16.085Z,17.80
2018-11-06T17:15:42.823Z,17.93
2018-11-06T17:18:09.768Z,17.53
2018-11-06T17:20:36.507Z,18.27
2018-11-06T17:23:03.240Z,17.73
2018-11-06T17:25:29.931Z,17.37
2018-11-06T17:27:56.597Z,18.47
2018-11-06T17:30:23.981Z,18.33
2018-11-06T17:32:50.699Z,19.10
2018-11-06T17:35:18.145Z,18.60
2018-11-06T17:37:45.536Z,18.53
2018-11-06T17:40:12.256Z,19.17
2018-11-06T17:42:39.106Z,19.40
2018-11-06T17:45:05.791Z,19.77
2018-11-06T17:47:32.454Z,19.10
2018-11-06T17:50:14.139Z,18.57
2018-11-06T17:52:40.808Z,18.40
2018-11-06T17:55:08.297Z,18.83
2018-11-06T17:57:35.096Z,17.83
2018-11-06T18:00:01.821Z,18.17
2018-11-06T18:02:28.562Z,17.40
2018-11-06T18:04:55.447Z,17.57
2018-11-06T18:07:22.107Z,17.33
2018-11-06T18:09:48.837Z,18.60
2018-11-06T18:12:15.599Z,17.90
2018-11-06T18:14:43.069Z,18.57
2018-11-06T18:17:10.009Z,18.57
2018-11-06T18:19:37.096Z,18.47
2018-11-06T18:22:03.804Z,18.33
2018-11-06T18:24:30.448Z,18.27
2018-11-06T18:27:12.019Z,17.47
2018-11-06T18:29:39.470Z,18.70
2018-11-06T18:32:06.357Z,18.53
2018-11-06T18:34:33.763Z,17.70
2018-11-06T18:37:00.544Z,19.23
2018-11-06T18:39:27.360Z,19.40
2018-11-06T18:41:54.008Z,18.40
2018-11-06T18:44:20.680Z,18.93
2018-11-06T18:46:48.221Z,18.80
2018-11-06T18:49:15.640Z,19.03
2018-11-06T18:51:42.284Z,19.27
2018-11-06T18:54:08.998Z,20.57
2018-11-06T18:56:35.657Z,18.63
2018-11-06T18:59:02.463Z,20.43
2018-11-06T19:01:29.134Z,19.93
2018-11-06T19:03:55.793Z,19.53
2018-11-06T19:06:22.523Z,19.50
2018-11-06T19:08:49.389Z,20.23
2018-11-06T19:11:16.046Z,21.33
2018-11-06T19:13:43.598Z,20.27
2018-11-06T19:16:10.318Z,21.03
2018-11-06T19:18:37.768Z,20.87
2018-11-06T19:21:04.482Z,21.60
2018-11-06T19:23:31.175Z,22.10
2018-11-06T19:25:58.724Z,19.93
2018-11-06T19:28:25.406Z,20.83
2018-11-06T19:30:52.078Z,22.57
2018-11-06T19:33:18.871Z,21.53
2018-11-06T19:35:46.289Z,21.97
2018-11-06T19:38:12.992Z,22.10
2018-11-06T19:40:39.880Z,23.13
2018-11-06T19:43:07.271Z,22.83
2018-11-06T19:45:33.945Z,22.37
2018-11-06T19:48:00.734Z,24.30
2018-11-06T19:50:28.139Z,23.63
2018-11-06T19:52:54.850Z,25.70
2018-11-06T19:55:21.726Z,25.67
2018-11-06T19:57:48.415Z,25.73
2018-11-06T20:00:15.194Z,27.13
2018-11-06T20:02:41.895Z,27.80
2018-11-06T20:05:09.692Z,26.27
2018-11-06T20:07:37.373Z,25.90
2018-11-06T20:10:04.099Z,25.43
2018-11-06T20:12:30.761Z,25.47
2018-11-06T20:14:57.517Z,27.37
2018-11-06T20:17:25.127Z,28.77
2018-11-06T20:19:51.788Z,27.03
2018-11-06T20:22:18.593Z,27.63
2018-11-06T20:24:45.298Z,27.77
2018-11-06T20:27:11.958Z,28.70
2018-11-06T20:29:38.807Z,27.53
2018-11-06T20:32:06.247Z,26.87
2018-11-06T20:34:33.215Z,28.30
2018-11-06T20:37:00.023Z,27.37
2018-11-06T20:39:26.952Z,29.43
2018-11-06T20:41:53.980Z,27.73
2018-11-06T20:44:20.901Z,29.23
2018-11-06T20:46:48.402Z,27.93
2018-11-06T20:49:15.269Z,29.20
2018-11-06T20:51:42.084Z,29.83
2018-11-06T20:54:08.928Z,29.50
2018-11-06T20:56:35.629Z,30.13
2018-11-06T20:59:02.581Z,30.17
2018-11-06T21:01:29.305Z,29.47
2018-11-06T21:03:56.695Z,29.57
2018-11-06T21:06:23.355Z,28.47
2018-11-06T21:08:50.193Z,26.83
2018-11-06T21:11:16.926Z,27.03
2018-11-06T21:13:44.397Z,27.00
2018-11-06T21:16:11.420Z,27.03
2018-11-06T21:18:38.087Z,26.33
2018-11-06T21:21:05.552Z,26.37
2018-11-06T21:23:32.339Z,25.47
2018-11-06T21:25:59.192Z,26.27
2018-11-06T21:28:26.486Z,25.63
2018-11-06T21:30:53.333Z,24.23
2018-11-06T21:33:19.998Z,25.43
2018-11-06T21:35:47.416Z,25.30
2018-11-06T21:38:14.197Z,26.03
2018-11-06T21:40:41.880Z,26.60
2018-11-06T21:43:08.535Z,25.33
2018-11-06T21:45:36.429Z,24.57
2018-11-06T21:48:03.517Z,24.77
2018-11-06T21:50:30.197Z,26.30
2018-11-06T21:52:56.866Z,24.67
2018-11-06T21:55:23.567Z,24.40
2018-11-06T21:57:50.355Z,24.87
2018-11-06T22:00:17.124Z,24.10
2018-11-06T22:02:43.797Z,23.83
2018-11-06T22:05:10.540Z,24.30
2018-11-06T22:07:37.222Z,24.00
2018-11-06T22:10:04.784Z,24.00
2018-11-06T22:12:32.251Z,24.57
2018-11-06T22:14:59.728Z,23.20
2018-11-06T22:17:26.519Z,23.03
2018-11-06T22:19:53.194Z,23.83
2018-11-06T22:22:19.992Z,23.23
2018-11-06T22:24:46.891Z,23.57
2018-11-06T22:27:13.600Z,23.67
2018-11-06T22:29:40.273Z,24.17
2018-11-06T22:32:07.107Z,23.67
2018-11-06T22:34:33.768Z,23.17
2018-11-06T22:37:00.479Z,22.83
2018-11-06T22:39:27.151Z,24.10
2018-11-06T22:41:53.816Z,23.40
2018-11-06T22:44:20.626Z,23.10
2018-11-06T22:46:47.292Z,24.50
2018-11-06T22:49:13.959Z,22.87
2018-11-06T22:51:41.418Z,22.77
2018-11-06T22:54:08.821Z,23.23
2018-11-06T22:56:35.456Z,22.43
2018-11-06T22:59:02.270Z,20.93
2018-11-06T23:01:29.672Z,21.77
2018-11-06T23:03:56.370Z,20.93
2018-11-06T23:06:23.308Z,22.20
2018-11-06T23:08:50.009Z,22.27
2018-11-06T23:11:16.669Z,21.10
2018-11-06T23:13:44.336Z,21.13
2018-11-06T23:16:11.827Z,20.67
2018-11-06T23:18:38.461Z,22.07
2018-11-06T23:21:05.153Z,21.23
2018-11-06T23:23:32.359Z,22.43
2018-11-06T23:25:59.018Z,23.33
2018-11-06T23:28:25.786Z,22.40
2018-11-06T23:30:52.575Z,22.40
2018-11-06T23:33:19.295Z,23.30
2018-11-06T23:35:46.082Z,23.03
2018-11-06T23:38:12.890Z,22.63
2018-11-06T23:40:39.585Z,24.53
2018-11-06T23:43:07.200Z,22.67
2018-11-06T23:45:34.021Z,22.20
2018-11-06T23:48:00.682Z,23.70
2018-11-06T23:50:27.469Z,23.10
2018-11-06T23:52:54.140Z,22.93
2018-11-06T23:55:21.540Z,23.03
2018-11-06T23:57:48.246Z,22.20
